< < Back
Terminal Aerodrome Forecast


Current Version              Previous Versions:   1  2  3  4  5  6  7  8  9  

Terminal Aerodrome Forecast

050
FTUS42 KFFC 281402 AAA
TAFMCN
TAF AMD
KMCN 281402Z 2814/2912 30010G18KT P6SM SKC
     FM282100 35007KT P6SM SKC
     FM291000 03003KT P6SM SKC=

Latest METAR

637
SAUS80 KWBC 290100 RRA
MTRMCN
METAR KMCN 290053Z AUTO 31004KT 10SM CLR 08/M07 A3019 RMK AO2 SLP224
T00831067 TSNO


USA.gov is the U.S. government's official web portal to all federal, state and local government web resources and services.